sensor_id;sensor_type;location;lat;lon;timestamp;temperature;humidity
57026;DHT22;43961;52.940;6.834;2023-05-29T00:01:44;9.50;99.90
57026;DHT22;43961;52.940;6.834;2023-05-29T00:04:11;9.50;99.90
57026;DHT22;43961;52.940;6.834;2023-05-29T00:06:37;9.50;99.90
57026;DHT22;43961;52.940;6.834;2023-05-29T00:09:03;9.50;99.90
57026;DHT22;43961;52.940;6.834;2023-05-29T00:11:29;9.40;99.90
57026;DHT22;43961;52.940;6.834;2023-05-29T00:13:55;9.40;99.90
57026;DHT22;43961;52.940;6.834;2023-05-29T00:16:23;9.40;99.90
57026;DHT22;43961;52.940;6.834;2023-05-29T00:18:49;9.40;99.90
57026;DHT22;43961;52.940;6.834;2023-05-29T00:21:15;9.30;99.90
57026;DHT22;43961;52.940;6.834;2023-05-29T00:23:41;9.30;99.90
57026;DHT22;43961;52.940;6.834;2023-05-29T00:26:07;9.30;99.90
57026;DHT22;43961;52.940;6.834;2023-05-29T00:28:34;9.20;99.90
57026;DHT22;43961;52.940;6.834;2023-05-29T00:31:00;9.20;99.90
57026;DHT22;43961;52.940;6.834;2023-05-29T00:33:26;9.20;99.90
57026;DHT22;43961;52.940;6.834;2023-05-29T00:35:52;9.20;99.90
57026;DHT22;43961;52.940;6.834;2023-05-29T00:38:18;9.10;99.90
57026;DHT22;43961;52.940;6.834;2023-05-29T00:40:43;9.10;99.90
57026;DHT22;43961;52.940;6.834;2023-05-29T00:43:09;9.10;99.90
57026;DHT22;43961;52.940;6.834;2023-05-29T00:45:35;9.10;99.90
57026;DHT22;43961;52.940;6.834;2023-05-29T00:48:05;9.10;99.90
57026;DHT22;43961;52.940;6.834;2023-05-29T00:50:32;9.10;99.90
57026;DHT22;43961;52.940;6.834;2023-05-29T00:53:00;9.00;99.90
57026;DHT22;43961;52.940;6.834;2023-05-29T00:55:27;9.00;99.90
57026;DHT22;43961;52.940;6.834;2023-05-29T00:57:53;8.90;99.90
57026;DHT22;43961;52.940;6.834;2023-05-29T01:00:19;8.90;99.90
57026;DHT22;43961;52.940;6.834;2023-05-29T01:02:46;8.90;99.90
57026;DHT22;43961;52.940;6.834;2023-05-29T01:05:13;8.90;99.90
57026;DHT22;43961;52.940;6.834;2023-05-29T01:07:41;8.90;99.90
57026;DHT22;43961;52.940;6.834;2023-05-29T01:10:08;8.80;99.90
57026;DHT22;43961;52.940;6.834;2023-05-29T01:13:03;8.80;99.90
57026;DHT22;43961;52.940;6.834;2023-05-29T01:15:46;8.70;99.90
57026;DHT22;43961;52.940;6.834;2023-05-29T01:18:57;8.70;99.90
57026;DHT22;43961;52.940;6.834;2023-05-29T01:21:54;8.70;99.90
57026;DHT22;43961;52.940;6.834;2023-05-29T01:24:25;8.70;99.90
57026;DHT22;43961;52.940;6.834;2023-05-29T01:26:52;8.70;99.90
57026;DHT22;43961;52.940;6.834;2023-05-29T01:29:23;8.70;99.90
57026;DHT22;43961;52.940;6.834;2023-05-29T01:31:51;8.60;99.90
57026;DHT22;43961;52.940;6.834;2023-05-29T01:34:18;8.60;99.90
57026;DHT22;43961;52.940;6.834;2023-05-29T01:36:43;8.60;99.90
57026;DHT22;43961;52.940;6.834;2023-05-29T01:39:10;8.50;99.90
57026;DHT22;43961;52.940;6.834;2023-05-29T01:41:36;8.50;99.90
57026;DHT22;43961;52.940;6.834;2023-05-29T01:44:05;8.50;99.90
57026;DHT22;43961;52.940;6.834;2023-05-29T01:46:35;8.50;99.90
57026;DHT22;43961;52.940;6.834;2023-05-29T01:49:01;8.40;99.90
57026;DHT22;43961;52.940;6.834;2023-05-29T01:51:28;8.30;99.90
57026;DHT22;43961;52.940;6.834;2023-05-29T01:53:54;8.40;99.90
57026;DHT22;43961;52.940;6.834;2023-05-29T01:56:20;8.30;99.90
57026;DHT22;43961;52.940;6.834;2023-05-29T01:58:47;8.30;99.90
57026;DHT22;43961;52.940;6.834;2023-05-29T02:01:13;8.30;99.90
57026;DHT22;43961;52.940;6.834;2023-05-29T02:03:39;8.40;99.90
57026;DHT22;43961;52.940;6.834;2023-05-29T02:06:04;8.30;99.90
57026;DHT22;43961;52.940;6.834;2023-05-29T02:08:32;8.30;99.90
57026;DHT22;43961;52.940;6.834;2023-05-29T02:10:57;8.20;99.90
57026;DHT22;43961;52.940;6.834;2023-05-29T02:13:23;8.20;99.90
57026;DHT22;43961;52.940;6.834;2023-05-29T02:15:48;8.20;99.90
57026;DHT22;43961;52.940;6.834;2023-05-29T02:18:15;8.20;99.90
57026;DHT22;43961;52.940;6.834;2023-05-29T02:20:42;8.20;99.90
57026;DHT22;43961;52.940;6.834;2023-05-29T02:23:09;8.20;99.90
57026;DHT22;43961;52.940;6.834;2023-05-29T02:25:34;8.20;99.90
57026;DHT22;43961;52.940;6.834;2023-05-29T02:28:01;8.10;99.90
57026;DHT22;43961;52.940;6.834;2023-05-29T02:30:27;8.20;99.90
57026;DHT22;43961;52.940;6.834;2023-05-29T02:32:53;8.10;99.90
57026;DHT22;43961;52.940;6.834;2023-05-29T02:35:19;8.10;99.90
57026;DHT22;43961;52.940;6.834;2023-05-29T02:37:48;8.00;99.90
57026;DHT22;43961;52.940;6.834;2023-05-29T02:40:14;8.00;99.90
57026;DHT22;43961;52.940;6.834;2023-05-29T02:42:40;8.00;99.90
57026;DHT22;43961;52.940;6.834;2023-05-29T02:45:06;7.90;99.90
57026;DHT22;43961;52.940;6.834;2023-05-29T02:47:32;7.90;99.90
57026;DHT22;43961;52.940;6.834;2023-05-29T02:49:57;7.90;99.90
57026;DHT22;43961;52.940;6.834;2023-05-29T02:52:23;7.90;99.90
57026;DHT22;43961;52.940;6.834;2023-05-29T02:54:49;7.80;99.90
57026;DHT22;43961;52.940;6.834;2023-05-29T02:57:14;7.80;99.90
57026;DHT22;43961;52.940;6.834;2023-05-29T02:59:41;7.80;99.90
57026;DHT22;43961;52.940;6.834;2023-05-29T03:02:07;7.80;99.90
57026;DHT22;43961;52.940;6.834;2023-05-29T03:04:33;7.80;99.90
57026;DHT22;43961;52.940;6.834;2023-05-29T03:06:59;7.90;99.90
57026;DHT22;43961;52.940;6.834;2023-05-29T03:09:25;7.90;99.90
57026;DHT22;43961;52.940;6.834;2023-05-29T03:11:51;7.90;99.90
57026;DHT22;43961;52.940;6.834;2023-05-29T03:14:17;7.90;99.90
57026;DHT22;43961;52.940;6.834;2023-05-29T03:16:44;7.90;99.90
57026;DHT22;43961;52.940;6.834;2023-05-29T03:19:10;7.90;99.90
57026;DHT22;43961;52.940;6.834;2023-05-29T03:21:36;7.90;99.90
57026;DHT22;43961;52.940;6.834;2023-05-29T03:24:02;7.80;99.90
57026;DHT22;43961;52.940;6.834;2023-05-29T03:26:30;7.70;99.90
57026;DHT22;43961;52.940;6.834;2023-05-29T03:28:56;7.70;99.90
57026;DHT22;43961;52.940;6.834;2023-05-29T03:31:22;7.70;99.90
57026;DHT22;43961;52.940;6.834;2023-05-29T03:33:48;7.60;99.90
57026;DHT22;43961;52.940;6.834;2023-05-29T03:36:15;7.60;99.90
57026;DHT22;43961;52.940;6.834;2023-05-29T03:38:43;7.50;99.90
57026;DHT22;43961;52.940;6.834;2023-05-29T03:41:09;7.60;99.90
57026;DHT22;43961;52.940;6.834;2023-05-29T03:43:35;7.60;99.90
57026;DHT22;43961;52.940;6.834;2023-05-29T03:46:01;7.60;99.90
57026;DHT22;43961;52.940;6.834;2023-05-29T03:48:27;7.60;99.90
57026;DHT22;43961;52.940;6.834;2023-05-29T03:50:53;7.50;99.90
57026;DHT22;43961;52.940;6.834;2023-05-29T03:53:18;7.50;99.90
57026;DHT22;43961;52.940;6.834;2023-05-29T03:55:44;7.60;99.90
57026;DHT22;43961;52.940;6.834;2023-05-29T03:58:10;7.50;99.90
57026;DHT22;43961;52.940;6.834;2023-05-29T04:00:38;7.50;99.90
57026;DHT22;43961;52.940;6.834;2023-05-29T04:03:04;7.60;99.90
57026;DHT22;43961;52.940;6.834;2023-05-29T04:05:29;7.60;99.90
57026;DHT22;43961;52.940;6.834;2023-05-29T04:07:56;7.70;99.90
57026;DHT22;43961;52.940;6.834;2023-05-29T04:10:22;7.80;99.90
57026;DHT22;43961;52.940;6.834;2023-05-29T04:12:49;7.90;99.90
57026;DHT22;43961;52.940;6.834;2023-05-29T04:15:14;7.90;99.90
57026;DHT22;43961;52.940;6.834;2023-05-29T04:17:40;8.10;99.90
57026;DHT22;43961;52.940;6.834;2023-05-29T04:20:06;8.10;99.90
57026;DHT22;43961;52.940;6.834;2023-05-29T04:22:34;8.20;99.90
57026;DHT22;43961;52.940;6.834;2023-05-29T04:25:01;8.30;99.90
57026;DHT22;43961;52.940;6.834;2023-05-29T04:27:26;8.30;99.90
57026;DHT22;43961;52.940;6.834;2023-05-29T04:29:52;8.40;99.90
57026;DHT22;43961;52.940;6.834;2023-05-29T04:32:19;8.40;99.90
57026;DHT22;43961;52.940;6.834;2023-05-29T04:34:44;8.50;99.90
57026;DHT22;43961;52.940;6.834;2023-05-29T04:37:10;8.50;99.90
57026;DHT22;43961;52.940;6.834;2023-05-29T04:39:35;8.50;99.90
57026;DHT22;43961;52.940;6.834;2023-05-29T04:42:01;8.60;99.90
57026;DHT22;43961;52.940;6.834;2023-05-29T04:44:27;8.70;99.90
57026;DHT22;43961;52.940;6.834;2023-05-29T04:46:54;8.90;99.90
57026;DHT22;43961;52.940;6.834;2023-05-29T04:49:20;9.00;99.90
57026;DHT22;43961;52.940;6.834;2023-05-29T04:51:47;9.20;99.90
57026;DHT22;43961;52.940;6.834;2023-05-29T04:54:12;9.20;99.90
57026;DHT22;43961;52.940;6.834;2023-05-29T04:56:38;9.30;99.90
57026;DHT22;43961;52.940;6.834;2023-05-29T04:59:06;9.30;99.90
57026;DHT22;43961;52.940;6.834;2023-05-29T05:01:32;9.40;99.90
57026;DHT22;43961;52.940;6.834;2023-05-29T05:04:01;9.50;99.90
57026;DHT22;43961;52.940;6.834;2023-05-29T05:06:26;9.50;99.90
57026;DHT22;43961;52.940;6.834;2023-05-29T05:08:53;9.50;99.90
57026;DHT22;43961;52.940;6.834;2023-05-29T05:11:19;9.60;99.90
57026;DHT22;43961;52.940;6.834;2023-05-29T05:13:46;9.60;99.90
57026;DHT22;43961;52.940;6.834;2023-05-29T05:16:11;9.80;99.90
57026;DHT22;43961;52.940;6.834;2023-05-29T05:18:38;9.80;99.90
57026;DHT22;43961;52.940;6.834;2023-05-29T05:21:03;9.90;99.90
57026;DHT22;43961;52.940;6.834;2023-05-29T05:23:30;9.90;99.90
57026;DHT22;43961;52.940;6.834;2023-05-29T05:25:55;10.00;99.90
57026;DHT22;43961;52.940;6.834;2023-05-29T05:28:21;10.00;99.90
57026;DHT22;43961;52.940;6.834;2023-05-29T05:30:47;10.10;99.90
57026;DHT22;43961;52.940;6.834;2023-05-29T05:33:13;10.20;99.90
57026;DHT22;43961;52.940;6.834;2023-05-29T05:35:39;10.30;99.90
57026;DHT22;43961;52.940;6.834;2023-05-29T05:38:04;10.40;99.90
57026;DHT22;43961;52.940;6.834;2023-05-29T05:40:31;10.60;99.90
57026;DHT22;43961;52.940;6.834;2023-05-29T05:42:57;10.80;99.90
57026;DHT22;43961;52.940;6.834;2023-05-29T05:45:23;10.90;99.90
57026;DHT22;43961;52.940;6.834;2023-05-29T05:47:48;11.00;99.90
57026;DHT22;43961;52.940;6.834;2023-05-29T05:50:14;11.00;99.90
57026;DHT22;43961;52.940;6.834;2023-05-29T05:52:40;11.00;99.90
57026;DHT22;43961;52.940;6.834;2023-05-29T05:55:06;11.00;99.90
57026;DHT22;43961;52.940;6.834;2023-05-29T05:57:33;11.00;99.90
57026;DHT22;43961;52.940;6.834;2023-05-29T05:59:59;11.10;99.90
57026;DHT22;43961;52.940;6.834;2023-05-29T06:02:25;11.10;99.90
57026;DHT22;43961;52.940;6.834;2023-05-29T06:04:51;11.20;99.90
57026;DHT22;43961;52.940;6.834;2023-05-29T06:07:17;11.20;99.90
57026;DHT22;43961;52.940;6.834;2023-05-29T06:09:43;11.30;99.90
57026;DHT22;43961;52.940;6.834;2023-05-29T06:12:09;11.30;99.90
57026;DHT22;43961;52.940;6.834;2023-05-29T06:14:35;11.30;99.90
57026;DHT22;43961;52.940;6.834;2023-05-29T06:17:01;11.40;99.90
57026;DHT22;43961;52.940;6.834;2023-05-29T06:19:26;11.40;99.90
57026;DHT22;43961;52.940;6.834;2023-05-29T06:21:52;11.50;99.90
57026;DHT22;43961;52.940;6.834;2023-05-29T06:24:18;11.50;99.90
57026;DHT22;43961;52.940;6.834;2023-05-29T06:26:44;11.50;99.90
57026;DHT22;43961;52.940;6.834;2023-05-29T06:29:09;11.60;99.90
57026;DHT22;43961;52.940;6.834;2023-05-29T06:31:35;11.50;99.90
57026;DHT22;43961;52.940;6.834;2023-05-29T06:34:01;11.60;99.90
57026;DHT22;43961;52.940;6.834;2023-05-29T06:36:27;11.70;99.90
57026;DHT22;43961;52.940;6.834;2023-05-29T06:38:52;11.80;99.90
57026;DHT22;43961;52.940;6.834;2023-05-29T06:41:18;11.80;99.90
57026;DHT22;43961;52.940;6.834;2023-05-29T06:43:44;12.00;99.90
57026;DHT22;43961;52.940;6.834;2023-05-29T06:46:10;12.10;99.90
57026;DHT22;43961;52.940;6.834;2023-05-29T06:48:36;12.20;99.90
57026;DHT22;43961;52.940;6.834;2023-05-29T06:51:02;12.20;99.90
57026;DHT22;43961;52.940;6.834;2023-05-29T06:53:37;12.30;99.90
57026;DHT22;43961;52.940;6.834;2023-05-29T06:56:04;12.50;99.90
57026;DHT22;43961;52.940;6.834;2023-05-29T06:58:31;12.50;99.90
57026;DHT22;43961;52.940;6.834;2023-05-29T07:00:57;12.50;99.90
57026;DHT22;43961;52.940;6.834;2023-05-29T07:03:25;12.70;99.90
57026;DHT22;43961;52.940;6.834;2023-05-29T07:05:51;12.80;99.90
57026;DHT22;43961;52.940;6.834;2023-05-29T07:08:17;12.80;99.90
57026;DHT22;43961;52.940;6.834;2023-05-29T07:10:44;12.90;99.90
57026;DHT22;43961;52.940;6.834;2023-05-29T07:13:09;12.90;99.90
57026;DHT22;43961;52.940;6.834;2023-05-29T07:15:37;12.90;99.90
57026;DHT22;43961;52.940;6.834;2023-05-29T07:18:03;13.00;99.90
57026;DHT22;43961;52.940;6.834;2023-05-29T07:20:28;13.10;99.90
57026;DHT22;43961;52.940;6.834;2023-05-29T07:22:54;13.10;99.90
57026;DHT22;43961;52.940;6.834;2023-05-29T07:25:20;13.10;99.90
57026;DHT22;43961;52.940;6.834;2023-05-29T07:27:45;13.00;99.90
57026;DHT22;43961;52.940;6.834;2023-05-29T07:30:11;13.10;99.90
57026;DHT22;43961;52.940;6.834;2023-05-29T07:32:37;13.20;99.90
57026;DHT22;43961;52.940;6.834;2023-05-29T07:35:03;13.10;99.90
57026;DHT22;43961;52.940;6.834;2023-05-29T07:37:29;13.20;99.90
57026;DHT22;43961;52.940;6.834;2023-05-29T07:39:55;13.30;99.90
57026;DHT22;43961;52.940;6.834;2023-05-29T07:42:21;13.40;99.90
57026;DHT22;43961;52.940;6.834;2023-05-29T07:44:47;13.40;99.90
57026;DHT22;43961;52.940;6.834;2023-05-29T07:47:13;13.50;99.90
57026;DHT22;43961;52.940;6.834;2023-05-29T07:49:40;13.60;99.90
57026;DHT22;43961;52.940;6.834;2023-05-29T07:52:05;13.70;99.90
57026;DHT22;43961;52.940;6.834;2023-05-29T07:54:31;13.90;99.90
57026;DHT22;43961;52.940;6.834;2023-05-29T07:57:01;14.20;99.90
57026;DHT22;43961;52.940;6.834;2023-05-29T07:59:35;14.20;99.90
57026;DHT22;43961;52.940;6.834;2023-05-29T08:02:01;14.00;99.20
57026;DHT22;43961;52.940;6.834;2023-05-29T08:04:28;13.90;99.90
57026;DHT22;43961;52.940;6.834;2023-05-29T08:06:54;13.90;99.90
57026;DHT22;43961;52.940;6.834;2023-05-29T08:09:20;14.00;99.90
57026;DHT22;43961;52.940;6.834;2023-05-29T08:11:46;14.10;99.90
57026;DHT22;43961;52.940;6.834;2023-05-29T08:14:13;14.30;99.90
57026;DHT22;43961;52.940;6.834;2023-05-29T08:16:39;14.50;99.80
57026;DHT22;43961;52.940;6.834;2023-05-29T08:19:05;14.50;95.90
57026;DHT22;43961;52.940;6.834;2023-05-29T08:21:30;14.50;97.10
57026;DHT22;43961;52.940;6.834;2023-05-29T08:23:57;14.70;99.20
57026;DHT22;43961;52.940;6.834;2023-05-29T08:26:23;14.80;97.00
57026;DHT22;43961;52.940;6.834;2023-05-29T08:28:49;14.80;94.80
57026;DHT22;43961;52.940;6.834;2023-05-29T08:31:15;14.80;95.30
57026;DHT22;43961;52.940;6.834;2023-05-29T08:33:41;14.80;95.60
57026;DHT22;43961;52.940;6.834;2023-05-29T08:36:07;14.90;93.60
57026;DHT22;43961;52.940;6.834;2023-05-29T08:38:34;14.90;93.40
57026;DHT22;43961;52.940;6.834;2023-05-29T08:41:00;15.00;93.20
57026;DHT22;43961;52.940;6.834;2023-05-29T08:43:30;14.90;94.30
57026;DHT22;43961;52.940;6.834;2023-05-29T08:46:01;15.00;95.60
57026;DHT22;43961;52.940;6.834;2023-05-29T08:48:28;15.30;96.10
57026;DHT22;43961;52.940;6.834;2023-05-29T08:50:55;15.60;93.10
57026;DHT22;43961;52.940;6.834;2023-05-29T08:53:25;15.50;93.00
57026;DHT22;43961;52.940;6.834;2023-05-29T08:55:52;15.70;92.80
57026;DHT22;43961;52.940;6.834;2023-05-29T08:58:21;15.90;94.90
57026;DHT22;43961;52.940;6.834;2023-05-29T09:00:48;16.00;93.30
57026;DHT22;43961;52.940;6.834;2023-05-29T09:03:15;16.10;93.80
57026;DHT22;43961;52.940;6.834;2023-05-29T09:05:42;16.20;91.00
57026;DHT22;43961;52.940;6.834;2023-05-29T09:08:09;16.30;91.00
57026;DHT22;43961;52.940;6.834;2023-05-29T09:10:36;16.50;92.80
57026;DHT22;43961;52.940;6.834;2023-05-29T09:13:02;16.50;91.50
57026;DHT22;43961;52.940;6.834;2023-05-29T09:15:28;16.60;91.40
57026;DHT22;43961;52.940;6.834;2023-05-29T09:17:55;16.20;83.40
57026;DHT22;43961;52.940;6.834;2023-05-29T09:20:23;16.10;90.00
57026;DHT22;43961;52.940;6.834;2023-05-29T09:22:55;16.30;90.10
57026;DHT22;43961;52.940;6.834;2023-05-29T09:25:25;16.10;84.20
57026;DHT22;43961;52.940;6.834;2023-05-29T09:27:57;16.10;88.80
57026;DHT22;43961;52.940;6.834;2023-05-29T09:30:43;16.20;89.80
57026;DHT22;43961;52.940;6.834;2023-05-29T09:33:11;16.40;90.10
57026;DHT22;43961;52.940;6.834;2023-05-29T09:35:40;16.60;87.70
57026;DHT22;43961;52.940;6.834;2023-05-29T09:38:08;16.70;88.90
57026;DHT22;43961;52.940;6.834;2023-05-29T09:40:36;17.00;85.00
57026;DHT22;43961;52.940;6.834;2023-05-29T09:43:04;16.60;81.20
57026;DHT22;43961;52.940;6.834;2023-05-29T09:45:30;16.50;83.10
57026;DHT22;43961;52.940;6.834;2023-05-29T09:47:56;16.60;87.70
57026;DHT22;43961;52.940;6.834;2023-05-29T09:50:26;16.90;87.90
57026;DHT22;43961;52.940;6.834;2023-05-29T09:52:53;17.00;81.90
57026;DHT22;43961;52.940;6.834;2023-05-29T09:55:20;16.70;79.10
57026;DHT22;43961;52.940;6.834;2023-05-29T09:57:47;16.40;80.70
57026;DHT22;43961;52.940;6.834;2023-05-29T10:00:15;16.60;86.10
57026;DHT22;43961;52.940;6.834;2023-05-29T10:02:42;16.80;84.70
57026;DHT22;43961;52.940;6.834;2023-05-29T10:05:08;16.90;77.90
57026;DHT22;43961;52.940;6.834;2023-05-29T10:07:36;16.70;77.70
57026;DHT22;43961;52.940;6.834;2023-05-29T10:10:04;16.70;81.00
57026;DHT22;43961;52.940;6.834;2023-05-29T10:12:32;16.70;80.60
57026;DHT22;43961;52.940;6.834;2023-05-29T10:15:00;16.70;77.90
57026;DHT22;43961;52.940;6.834;2023-05-29T10:17:33;16.60;79.40
57026;DHT22;43961;52.940;6.834;2023-05-29T10:20:02;16.70;78.50
57026;DHT22;43961;52.940;6.834;2023-05-29T10:22:32;16.80;83.00
57026;DHT22;43961;52.940;6.834;2023-05-29T10:24:58;17.20;82.00
57026;DHT22;43961;52.940;6.834;2023-05-29T10:27:25;17.50;83.20
57026;DHT22;43961;52.940;6.834;2023-05-29T10:36:04;17.90;75.60
57026;DHT22;43961;52.940;6.834;2023-05-29T10:38:25;17.80;74.30
57026;DHT22;43961;52.940;6.834;2023-05-29T10:40:52;17.50;74.40
57026;DHT22;43961;52.940;6.834;2023-05-29T10:43:31;17.60;74.80
57026;DHT22;43961;52.940;6.834;2023-05-29T10:45:58;17.90;78.60
57026;DHT22;43961;52.940;6.834;2023-05-29T10:50:54;17.90;72.50
57026;DHT22;43961;52.940;6.834;2023-05-29T10:53:31;17.70;72.00
57026;DHT22;43961;52.940;6.834;2023-05-29T10:55:59;17.30;73.60
57026;DHT22;43961;52.940;6.834;2023-05-29T10:58:27;17.30;76.60
57026;DHT22;43961;52.940;6.834;2023-05-29T11:00:55;17.00;71.00
57026;DHT22;43961;52.940;6.834;2023-05-29T11:03:25;17.00;73.60
57026;DHT22;43961;52.940;6.834;2023-05-29T11:05:59;17.10;77.10
57026;DHT22;43961;52.940;6.834;2023-05-29T11:08:54;17.40;77.60
57026;DHT22;43961;52.940;6.834;2023-05-29T11:11:30;17.20;74.10
57026;DHT22;43961;52.940;6.834;2023-05-29T11:14:02;17.10;72.50
57026;DHT22;43961;52.940;6.834;2023-05-29T11:19:08;17.00;75.90
57026;DHT22;43961;52.940;6.834;2023-05-29T11:24:26;17.00;75.60
57026;DHT22;43961;52.940;6.834;2023-05-29T11:26:54;17.10;73.20
57026;DHT22;43961;52.940;6.834;2023-05-29T11:29:26;17.30;74.50
57026;DHT22;43961;52.940;6.834;2023-05-29T11:31:58;17.20;71.70
57026;DHT22;43961;52.940;6.834;2023-05-29T11:34:28;17.30;73.30
57026;DHT22;43961;52.940;6.834;2023-05-29T11:36:57;17.10;70.00
57026;DHT22;43961;52.940;6.834;2023-05-29T11:39:23;17.50;74.30
57026;DHT22;43961;52.940;6.834;2023-05-29T11:41:54;17.80;71.90
57026;DHT22;43961;52.940;6.834;2023-05-29T11:44:20;18.00;74.50
57026;DHT22;43961;52.940;6.834;2023-05-29T11:47:03;18.20;75.40
57026;DHT22;43961;52.940;6.834;2023-05-29T11:49:35;18.50;74.00
57026;DHT22;43961;52.940;6.834;2023-05-29T11:52:21;18.70;68.30
57026;DHT22;43961;52.940;6.834;2023-05-29T11:54:49;18.50;68.80
57026;DHT22;43961;52.940;6.834;2023-05-29T11:57:19;18.60;72.20
57026;DHT22;43961;52.940;6.834;2023-05-29T11:59:44;18.60;72.40
57026;DHT22;43961;52.940;6.834;2023-05-29T12:02:10;18.30;67.80
57026;DHT22;43961;52.940;6.834;2023-05-29T12:04:37;18.10;69.40
57026;DHT22;43961;52.940;6.834;2023-05-29T12:07:19;18.20;71.80
57026;DHT22;43961;52.940;6.834;2023-05-29T12:09:44;18.50;73.50
57026;DHT22;43961;52.940;6.834;2023-05-29T12:12:10;18.60;70.00
57026;DHT22;43961;52.940;6.834;2023-05-29T12:14:36;18.70;70.10
57026;DHT22;43961;52.940;6.834;2023-05-29T12:17:01;18.60;69.60
57026;DHT22;43961;52.940;6.834;2023-05-29T12:19:27;18.50;69.20
57026;DHT22;43961;52.940;6.834;2023-05-29T12:21:54;18.60;72.60
57026;DHT22;43961;52.940;6.834;2023-05-29T12:24:21;18.70;69.00
57026;DHT22;43961;52.940;6.834;2023-05-29T12:26:47;18.90;72.90
57026;DHT22;43961;52.940;6.834;2023-05-29T12:29:13;18.70;67.60
57026;DHT22;43961;52.940;6.834;2023-05-29T12:31:38;18.50;65.90
57026;DHT22;43961;52.940;6.834;2023-05-29T12:34:11;18.40;70.70
57026;DHT22;43961;52.940;6.834;2023-05-29T12:36:41;18.50;69.80
57026;DHT22;43961;52.940;6.834;2023-05-29T12:39:08;18.90;69.40
57026;DHT22;43961;52.940;6.834;2023-05-29T12:41:34;18.90;65.40
57026;DHT22;43961;52.940;6.834;2023-05-29T12:44:05;18.50;63.70
57026;DHT22;43961;52.940;6.834;2023-05-29T12:46:41;18.50;69.50
57026;DHT22;43961;52.940;6.834;2023-05-29T12:49:17;18.70;67.90
57026;DHT22;43961;52.940;6.834;2023-05-29T12:51:46;19.00;70.10
57026;DHT22;43961;52.940;6.834;2023-05-29T12:54:16;19.20;68.70
57026;DHT22;43961;52.940;6.834;2023-05-29T12:56:42;19.10;64.90
57026;DHT22;43961;52.940;6.834;2023-05-29T12:59:11;18.80;61.10
57026;DHT22;43961;52.940;6.834;2023-05-29T13:01:37;18.50;65.00
57026;DHT22;43961;52.940;6.834;2023-05-29T13:04:06;18.60;68.50
57026;DHT22;43961;52.940;6.834;2023-05-29T13:06:37;18.70;65.40
57026;DHT22;43961;52.940;6.834;2023-05-29T13:09:03;18.60;65.40
57026;DHT22;43961;52.940;6.834;2023-05-29T13:11:28;18.60;64.10
57026;DHT22;43961;52.940;6.834;2023-05-29T13:13:54;18.40;61.30
57026;DHT22;43961;52.940;6.834;2023-05-29T13:16:20;18.30;63.90
57026;DHT22;43961;52.940;6.834;2023-05-29T13:18:46;18.20;63.50
57026;DHT22;43961;52.940;6.834;2023-05-29T13:21:12;18.30;65.50
57026;DHT22;43961;52.940;6.834;2023-05-29T13:23:37;18.50;65.70
57026;DHT22;43961;52.940;6.834;2023-05-29T13:26:04;18.60;64.80
57026;DHT22;43961;52.940;6.834;2023-05-29T13:28:30;18.50;65.90
57026;DHT22;43961;52.940;6.834;2023-05-29T13:30:56;18.30;64.20
57026;DHT22;43961;52.940;6.834;2023-05-29T13:33:21;18.20;63.80
57026;DHT22;43961;52.940;6.834;2023-05-29T13:35:47;18.10;65.40
57026;DHT22;43961;52.940;6.834;2023-05-29T13:38:13;18.40;65.20
57026;DHT22;43961;52.940;6.834;2023-05-29T13:40:38;18.50;63.60
57026;DHT22;43961;52.940;6.834;2023-05-29T13:43:04;18.70;65.60
57026;DHT22;43961;52.940;6.834;2023-05-29T13:45:30;18.80;67.10
57026;DHT22;43961;52.940;6.834;2023-05-29T13:47:56;19.00;66.90
57026;DHT22;43961;52.940;6.834;2023-05-29T13:50:22;18.80;63.80
57026;DHT22;43961;52.940;6.834;2023-05-29T13:52:49;18.30;65.50
57026;DHT22;43961;52.940;6.834;2023-05-29T13:55:15;18.10;65.60
57026;DHT22;43961;52.940;6.834;2023-05-29T13:57:41;18.10;67.90
57026;DHT22;43961;52.940;6.834;2023-05-29T14:00:10;18.10;65.80
57026;DHT22;43961;52.940;6.834;2023-05-29T14:02:36;18.20;63.10
57026;DHT22;43961;52.940;6.834;2023-05-29T14:05:02;18.40;66.20
57026;DHT22;43961;52.940;6.834;2023-05-29T14:07:28;18.50;66.90
57026;DHT22;43961;52.940;6.834;2023-05-29T14:09:54;18.30;64.20
57026;DHT22;43961;52.940;6.834;2023-05-29T14:12:19;18.40;63.90
57026;DHT22;43961;52.940;6.834;2023-05-29T14:14:45;18.40;61.50
57026;DHT22;43961;52.940;6.834;2023-05-29T14:17:11;18.30;63.30
57026;DHT22;43961;52.940;6.834;2023-05-29T14:19:38;18.20;65.60
57026;DHT22;43961;52.940;6.834;2023-05-29T14:22:04;18.30;67.20
57026;DHT22;43961;52.940;6.834;2023-05-29T14:24:29;18.40;65.90
57026;DHT22;43961;52.940;6.834;2023-05-29T14:26:55;18.30;63.10
57026;DHT22;43961;52.940;6.834;2023-05-29T14:29:21;18.30;66.10
57026;DHT22;43961;52.940;6.834;2023-05-29T14:31:46;18.40;67.60
57026;DHT22;43961;52.940;6.834;2023-05-29T14:34:12;18.50;68.10
57026;DHT22;43961;52.940;6.834;2023-05-29T14:36:38;18.60;65.60
57026;DHT22;43961;52.940;6.834;2023-05-29T14:39:05;18.70;65.30
57026;DHT22;43961;52.940;6.834;2023-05-29T14:41:32;18.60;62.00
57026;DHT22;43961;52.940;6.834;2023-05-29T14:44:00;18.50;64.70
57026;DHT22;43961;52.940;6.834;2023-05-29T14:46:27;18.30;63.40
57026;DHT22;43961;52.940;6.834;2023-05-29T14:48:57;18.20;63.50
57026;DHT22;43961;52.940;6.834;2023-05-29T14:51:23;18.20;63.50
57026;DHT22;43961;52.940;6.834;2023-05-29T14:53:50;18.20;65.60
57026;DHT22;43961;52.940;6.834;2023-05-29T14:56:15;18.30;63.80
57026;DHT22;43961;52.940;6.834;2023-05-29T14:58:43;18.20;64.80
57026;DHT22;43961;52.940;6.834;2023-05-29T15:01:09;18.30;65.20
57026;DHT22;43961;52.940;6.834;2023-05-29T15:03:35;18.30;66.10
57026;DHT22;43961;52.940;6.834;2023-05-29T15:06:02;18.30;65.70
57026;DHT22;43961;52.940;6.834;2023-05-29T15:08:29;18.30;67.20
57026;DHT22;43961;52.940;6.834;2023-05-29T15:10:56;18.10;64.40
57026;DHT22;43961;52.940;6.834;2023-05-29T15:13:22;18.10;61.60
57026;DHT22;43961;52.940;6.834;2023-05-29T15:15:49;17.90;63.10
57026;DHT22;43961;52.940;6.834;2023-05-29T15:18:14;17.80;63.20
57026;DHT22;43961;52.940;6.834;2023-05-29T15:20:40;17.70;60.30
57026;DHT22;43961;52.940;6.834;2023-05-29T15:23:06;17.70;59.60
57026;DHT22;43961;52.940;6.834;2023-05-29T15:25:31;17.80;61.70
57026;DHT22;43961;52.940;6.834;2023-05-29T15:27:57;17.80;61.30
57026;DHT22;43961;52.940;6.834;2023-05-29T15:30:24;17.60;59.00
57026;DHT22;43961;52.940;6.834;2023-05-29T15:32:50;17.40;59.10
57026;DHT22;43961;52.940;6.834;2023-05-29T15:35:15;17.40;57.50
57026;DHT22;43961;52.940;6.834;2023-05-29T15:37:42;17.50;57.00
57026;DHT22;43961;52.940;6.834;2023-05-29T15:40:08;17.30;54.80
57026;DHT22;43961;52.940;6.834;2023-05-29T15:42:34;17.00;52.50
57026;DHT22;43961;52.940;6.834;2023-05-29T15:45:02;17.00;56.20
57026;DHT22;43961;52.940;6.834;2023-05-29T15:47:30;16.90;56.30
57026;DHT22;43961;52.940;6.834;2023-05-29T15:49:56;17.00;59.40